createdAt,value
2018-02-17T21:00:50.429Z,34.90
2018-02-17T21:02:53.028Z,31.37
2018-02-17T21:05:21.088Z,31.13
2018-02-17T21:07:23.630Z,35.40
2018-02-17T21:09:26.267Z,27.13
2018-02-17T21:11:28.779Z,26.07
2018-02-17T21:13:31.270Z,27.20
2018-02-17T21:15:33.822Z,36.13
2018-02-17T21:17:36.269Z,31.67
2018-02-17T21:19:38.754Z,28.33
2018-02-17T21:21:41.297Z,31.83
2018-02-17T21:23:43.766Z,33.40
2018-02-17T21:25:46.259Z,32.63
2018-02-17T21:27:48.811Z,45.63
2018-02-17T21:29:51.424Z,43.07
2018-02-17T21:31:53.914Z,42.73
2018-02-17T21:33:56.439Z,41.10
2018-02-17T21:35:58.989Z,47.93
2018-02-17T21:38:01.457Z,48.23
2018-02-17T21:40:03.964Z,50.27
2018-02-17T21:42:06.600Z,50.20
2018-02-17T21:44:09.115Z,52.75
2018-02-17T21:46:11.772Z,60.80
2018-02-17T21:48:14.306Z,52.13
2018-02-17T21:50:16.747Z,47.83
2018-02-17T21:52:19.204Z,54.43
2018-02-17T21:54:21.680Z,46.00
2018-02-17T21:56:24.175Z,46.93
2018-02-17T21:58:26.728Z,41.88
2018-02-17T22:00:29.239Z,45.05
2018-02-17T22:02:31.763Z,39.08
2018-02-17T22:04:34.238Z,47.83
2018-02-17T22:06:36.710Z,47.90
2018-02-17T22:08:39.249Z,44.10
2018-02-17T22:10:41.760Z,45.77
2018-02-17T22:12:44.330Z,32.43
2018-02-17T22:14:46.877Z,40.90
2018-02-17T22:16:49.350Z,41.00
2018-02-17T22:18:51.880Z,45.80
2018-02-17T22:20:54.451Z,45.50
2018-02-17T22:22:56.950Z,41.50
2018-02-17T22:24:59.476Z,50.00
2018-02-17T22:27:01.926Z,50.90
2018-02-17T22:29:04.530Z,40.43
2018-02-17T22:31:07.058Z,40.03
2018-02-17T22:33:09.540Z,39.08
2018-02-17T22:35:12.040Z,37.40
2018-02-17T22:37:14.498Z,33.20
2018-02-17T22:39:16.976Z,44.03
2018-02-17T22:41:19.541Z,30.75
2018-02-17T22:43:22.027Z,34.60
2018-02-17T22:45:24.476Z,42.77
2018-02-17T22:47:27.014Z,31.40
2018-02-17T22:49:29.505Z,35.83
2018-02-17T22:51:32.090Z,33.13
2018-02-17T22:53:34.575Z,22.98
2018-02-17T22:55:37.190Z,30.03
2018-02-17T22:57:39.639Z,28.60
2018-02-17T22:59:42.106Z,31.73
2018-02-17T23:01:44.698Z,32.90
2018-02-17T23:03:47.156Z,30.60
2018-02-17T23:05:49.721Z,36.25
2018-02-17T23:07:52.296Z,32.17
2018-02-17T23:09:54.783Z,27.93
2018-02-17T23:11:57.267Z,30.73
2018-02-17T23:13:59.785Z,32.38
2018-02-17T23:16:02.382Z,29.90
2018-02-17T23:18:04.882Z,23.20
2018-02-17T23:20:07.369Z,29.37
2018-02-17T23:22:09.882Z,34.85
2018-02-17T23:24:12.349Z,30.43
2018-02-17T23:26:14.861Z,29.67
2018-02-17T23:28:17.366Z,32.05
2018-02-17T23:30:19.878Z,30.33
2018-02-17T23:32:22.377Z,35.08
2018-02-17T23:34:24.901Z,30.37
2018-02-17T23:36:27.376Z,27.75
2018-02-17T23:38:30.012Z,25.85
2018-02-17T23:40:32.612Z,26.23
2018-02-17T23:42:35.111Z,27.63
2018-02-17T23:44:37.717Z,33.60
2018-02-17T23:46:40.241Z,30.07
2018-02-17T23:48:42.702Z,23.97
2018-02-17T23:50:45.198Z,31.83
2018-02-17T23:52:47.722Z,32.97
2018-02-17T23:54:50.217Z,28.40
2018-02-17T23:56:52.722Z,29.73
2018-02-17T23:58:55.199Z,18.90
